Weather at Barberton Airport

Public forecast

Using degrees Celsius for public forecast. Weather courtesy of forecast.io.

Closest aviation weather report (METAR) to Barberton Airport

Closest report is Kruger Mpumalanga International Airport, 21.2 nm (39.3 km) NNE. Retrieved 2020/10/01 19:00 UTC (35 seconds ago):

FAKN 011900Z AUTO 05006KT //// // ////// 16/15 Q1022

Closest aviation forecast (TAF) to Barberton Airport

Forecast is more than 12 hours old.

Closest forecast is Kruger Mpumalanga International Airport, 21.2 nm (39.3 km) NNE. Retrieved 2017/06/05 04:55 UTC (3 years ago):

TAF FAKN 050300Z 0504/0515 25006KT CAVOK BECMG 0511/0513 13005KT SCT030 BECMG 0513/0515 07005KT TX22/0513ZTN08/0504Z